Time;durP1;ratioP1;P1;durP2;ratioP2;P2;SDS_P1;SDS_P2;PMS_P1;PMS_P2;Temp;Humidity;BMP_temperature;BMP_pressure;BME280_temperature;BME280_humidity;BME280_pressure;Samples;Min_cycle;Max_cycle;Signal;HPM_P1;HPM_P2
2022/05/07 00:02:20;;;;;;;48.38;33.25;;;;;;;;;;4958182;28;20174;-68
2022/05/07 00:04:49;;;;;;;50.40;34.83;;;;;;;;;;4967323;28;20196;-68
2022/05/07 00:07:16;;;;;;;56.08;35.88;;;;;;;;;;4960014;28;20061;-68
2022/05/07 00:09:43;;;;;;;50.03;34.58;;;;;;;;;;4964386;28;20116;-68
2022/05/07 00:12:11;;;;;;;42.60;31.77;;;;;;;;;;4962812;28;20521;-68
2022/05/07 00:14:38;;;;;;;46.80;32.95;;;;;;;;;;4964296;28;20050;-68
2022/05/07 00:19:52;;;;;;;47.33;33.72;;;;;;;;;;4961484;28;20589;-68
2022/05/07 00:22:19;;;;;;;54.53;36.30;;;;;;;;;;4960739;28;20055;-68
2022/05/07 00:24:46;;;;;;;50.42;33.30;;;;;;;;;;4962206;28;20834;-68
2022/05/07 00:27:13;;;;;;;55.67;34.22;;;;;;;;;;4957921;28;20093;-68
2022/05/07 00:29:41;;;;;;;49.97;33.03;;;;;;;;;;4966985;28;20473;-68
2022/05/07 00:32:09;;;;;;;49.28;34.10;;;;;;;;;;4955082;28;20054;-68
2022/05/07 00:34:36;;;;;;;48.97;33.50;;;;;;;;;;4962667;28;20066;-68
2022/05/07 00:37:05;;;;;;;51.35;35.10;;;;;;;;;;4953453;28;20494;-68
2022/05/07 00:39:33;;;;;;;47.05;32.75;;;;;;;;;;4963352;28;20051;-68
2022/05/07 00:42:04;;;;;;;50.30;35.58;;;;;;;;;;4940979;28;20164;-68
2022/05/07 00:44:31;;;;;;;51.33;34.63;;;;;;;;;;4958575;28;20074;-68
2022/05/07 00:47:01;;;;;;;49.83;33.78;;;;;;;;;;4964322;28;20054;-68
2022/05/07 00:49:28;;;;;;;50.05;35.63;;;;;;;;;;4964208;28;20057;-68
2022/05/07 00:51:54;;;;;;;56.55;37.38;;;;;;;;;;4957985;28;20510;-68
2022/05/07 00:54:24;;;;;;;47.67;34.22;;;;;;;;;;4958536;28;20774;-68
2022/05/07 00:56:51;;;;;;;53.03;36.65;;;;;;;;;;4958773;28;20051;-68
2022/05/07 00:59:19;;;;;;;53.75;35.63;;;;;;;;;;4961398;28;20063;-68
2022/05/07 01:01:46;;;;;;;54.72;35.22;;;;;;;;;;4941306;28;20062;-68
2022/05/07 01:04:13;;;;;;;57.75;37.97;;;;;;;;;;4962180;28;20061;-68
2022/05/07 01:06:41;;;;;;;52.17;34.55;;;;;;;;;;4961287;28;20047;-68
2022/05/07 01:09:08;;;;;;;49.83;34.88;;;;;;;;;;4959922;28;20050;-68
2022/05/07 01:11:37;;;;;;;51.25;36.22;;;;;;;;;;4965102;28;20822;-68
2022/05/07 01:14:04;;;;;;;49.72;33.90;;;;;;;;;;4959203;28;20042;-68
2022/05/07 01:16:31;;;;;;;50.10;34.20;;;;;;;;;;4961529;28;20548;-68
2022/05/07 01:18:58;;;;;;;44.25;31.55;;;;;;;;;;4955363;28;20479;-68
2022/05/07 01:21:28;;;;;;;46.97;31.40;;;;;;;;;;4942797;28;20489;-68
2022/05/07 01:23:56;;;;;;;39.45;28.52;;;;;;;;;;4956306;28;20075;-68
2022/05/07 01:26:24;;;;;;;46.67;31.40;;;;;;;;;;4939285;28;20055;-68
2022/05/07 01:28:51;;;;;;;45.95;30.52;;;;;;;;;;4959541;28;20054;-68
2022/05/07 01:31:19;;;;;;;38.67;27.48;;;;;;;;;;4960660;28;20066;-68
2022/05/07 01:33:46;;;;;;;39.55;26.70;;;;;;;;;;4959176;28;20098;-68
2022/05/07 01:36:16;;;;;;;39.70;27.17;;;;;;;;;;4942159;28;20066;-68
2022/05/07 01:38:44;;;;;;;36.75;27.58;;;;;;;;;;4964026;28;20137;-68
2022/05/07 01:41:12;;;;;;;37.10;26.42;;;;;;;;;;4960894;28;20054;-68
2022/05/07 01:43:39;;;;;;;37.28;26.35;;;;;;;;;;4964097;28;20142;-68
2022/05/07 01:48:09;;;;;;;35.85;26.95;;;;;;;;;;4964841;28;20441;-68
2022/05/07 01:48:54;;;;;;;35.45;25.85;;;;;;;;;;4961749;28;20065;-68
2022/05/07 01:51:21;;;;;;;37.40;27.83;;;;;;;;;;4958542;28;20170;-68
2022/05/07 01:53:50;;;;;;;38.63;27.30;;;;;;;;;;4944939;28;20055;-68
2022/05/07 01:56:17;;;;;;;40.75;27.70;;;;;;;;;;4960985;28;20059;-68
2022/05/07 01:58:45;;;;;;;41.03;29.15;;;;;;;;;;4961535;28;20059;-68
2022/05/07 02:01:12;;;;;;;43.20;27.85;;;;;;;;;;4958914;28;20126;-68
2022/05/07 02:03:39;;;;;;;44.58;29.60;;;;;;;;;;4959289;28;20050;-68
2022/05/07 02:06:06;;;;;;;40.35;27.52;;;;;;;;;;4942688;28;20062;-68
2022/05/07 02:08:34;;;;;;;39.72;28.17;;;;;;;;;;4959726;28;20099;-68
2022/05/07 02:11:02;;;;;;;40.88;28.70;;;;;;;;;;4959723;28;20490;-68
2022/05/07 02:13:30;;;;;;;37.45;28.42;;;;;;;;;;4959555;28;20047;-68
2022/05/07 02:15:57;;;;;;;42.13;30.70;;;;;;;;;;4960081;28;20066;-68
2022/05/07 02:18:24;;;;;;;40.30;29.63;;;;;;;;;;4963821;28;20047;-68
2022/05/07 02:20:53;;;;;;;43.15;29.95;;;;;;;;;;4963866;28;20051;-68
2022/05/07 02:23:20;;;;;;;44.88;29.42;;;;;;;;;;4959844;28;20051;-68
2022/05/07 02:25:47;;;;;;;43.83;29.20;;;;;;;;;;4956798;28;20855;-68
2022/05/07 02:28:17;;;;;;;47.53;31.20;;;;;;;;;;4962351;28;20516;-68
2022/05/07 02:30:44;;;;;;;38.67;28.02;;;;;;;;;;4960092;28;20065;-68
2022/05/07 02:33:11;;;;;;;44.55;29.45;;;;;;;;;;4958785;28;20055;-68
2022/05/07 02:35:38;;;;;;;41.88;28.73;;;;;;;;;;4943839;28;20055;-68
2022/05/07 02:38:06;;;;;;;45.05;30.25;;;;;;;;;;4959850;28;20091;-68
2022/05/07 02:42:33;;;;;;;44.63;31.25;;;;;;;;;;4958381;28;20057;-68
2022/05/07 02:43:20;;;;;;;43.53;31.08;;;;;;;;;;4960173;28;20051;-68
2022/05/07 02:45:48;;;;;;;42.25;29.58;;;;;;;;;;4940011;28;20148;-68
2022/05/07 02:48:15;;;;;;;38.05;29.05;;;;;;;;;;4961038;28;20055;-68
2022/05/07 02:50:42;;;;;;;44.88;30.02;;;;;;;;;;4961728;28;20090;-68
2022/05/07 02:53:09;;;;;;;37.92;28.52;;;;;;;;;;4944320;28;20062;-68
2022/05/07 02:55:36;;;;;;;45.28;30.35;;;;;;;;;;4962419;28;20130;-68
2022/05/07 02:58:04;;;;;;;44.15;30.67;;;;;;;;;;4939836;28;20077;-68
2022/05/07 03:00:32;;;;;;;43.75;29.35;;;;;;;;;;4956321;28;20066;-68
2022/05/07 03:02:59;;;;;;;43.90;31.45;;;;;;;;;;4962702;28;20047;-68
2022/05/07 03:05:27;;;;;;;42.28;29.98;;;;;;;;;;4967852;28;20047;-68
2022/05/07 03:07:58;;;;;;;45.33;31.17;;;;;;;;;;4943957;28;20062;-68
2022/05/07 03:10:25;;;;;;;43.58;32.38;;;;;;;;;;4966778;28;20142;-68
2022/05/07 03:12:52;;;;;;;39.70;30.48;;;;;;;;;;4958361;28;20058;-68
2022/05/07 03:15:19;;;;;;;47.70;32.30;;;;;;;;;;4959526;28;20098;-68
2022/05/07 03:17:48;;;;;;;45.20;30.35;;;;;;;;;;4958886;28;20558;-68
2022/05/07 03:20:17;;;;;;;51.13;31.95;;;;;;;;;;4963125;28;20043;-68
2022/05/07 03:22:45;;;;;;;43.08;30.33;;;;;;;;;;4962140;28;20084;-68
2022/05/07 03:25:12;;;;;;;48.28;35.05;;;;;;;;;;4959570;28;20417;-68
2022/05/07 03:27:39;;;;;;;49.20;34.67;;;;;;;;;;4948296;28;20050;-68
2022/05/07 03:30:07;;;;;;;49.33;34.35;;;;;;;;;;4966383;28;20109;-68
2022/05/07 03:32:35;;;;;;;54.65;37.78;;;;;;;;;;4958140;28;20110;-68
2022/05/07 03:35:04;;;;;;;53.20;35.40;;;;;;;;;;4962557;28;20054;-68
2022/05/07 03:37:31;;;;;;;47.13;34.42;;;;;;;;;;4963457;28;20093;-68
2022/05/07 03:39:58;;;;;;;46.88;33.67;;;;;;;;;;4949375;28;20063;-68
2022/05/07 03:42:28;;;;;;;58.83;39.58;;;;;;;;;;4962123;28;20094;-68
2022/05/07 03:44:55;;;;;;;50.17;35.88;;;;;;;;;;4960213;28;20604;-68
2022/05/07 03:47:22;;;;;;;57.65;39.30;;;;;;;;;;4965344;28;20051;-68
2022/05/07 03:49:50;;;;;;;58.72;37.92;;;;;;;;;;4965519;28;20062;-68
2022/05/07 03:55:03;;;;;;;51.20;35.38;;;;;;;;;;4961233;28;20054;-68
2022/05/07 03:57:30;;;;;;;52.40;34.67;;;;;;;;;;4942080;28;20059;-68
2022/05/07 03:59:58;;;;;;;51.10;35.92;;;;;;;;;;4945515;28;20133;-68
2022/05/07 04:02:25;;;;;;;53.65;36.92;;;;;;;;;;4946382;28;20047;-68
2022/05/07 04:04:52;;;;;;;53.05;36.85;;;;;;;;;;4961679;28;20101;-68
2022/05/07 04:07:21;;;;;;;48.10;35.75;;;;;;;;;;4961205;28;20494;-68
2022/05/07 04:09:51;;;;;;;63.28;42.63;;;;;;;;;;4961089;28;20055;-68
2022/05/07 04:12:18;;;;;;;83.18;47.38;;;;;;;;;;4960473;28;20078;-68
2022/05/07 04:14:46;;;;;;;57.53;40.33;;;;;;;;;;4961332;28;20050;-68
2022/05/07 04:17:13;;;;;;;59.47;39.63;;;;;;;;;;4962531;28;20070;-68
2022/05/07 04:19:40;;;;;;;58.97;40.78;;;;;;;;;;4956137;28;20109;-68
2022/05/07 04:22:07;;;;;;;72.05;45.13;;;;;;;;;;4959180;28;20046;-68
2022/05/07 04:24:36;;;;;;;72.00;44.80;;;;;;;;;;4940006;28;20050;-68
2022/05/07 04:27:03;;;;;;;55.85;39.97;;;;;;;;;;4959583;28;20055;-68
2022/05/07 04:29:31;;;;;;;64.90;43.92;;;;;;;;;;4934021;28;20549;-68
2022/05/07 04:31:58;;;;;;;64.00;43.75;;;;;;;;;;4937700;28;20070;-68
2022/05/07 04:34:28;;;;;;;61.10;42.40;;;;;;;;;;4960244;28;20058;-68
2022/05/07 04:36:55;;;;;;;52.92;38.15;;;;;;;;;;4956129;28;20509;-68
2022/05/07 04:39:22;;;;;;;57.22;40.10;;;;;;;;;;4953887;28;20042;-68
2022/05/07 04:41:51;;;;;;;71.80;44.05;;;;;;;;;;4955726;28;20068;-68
2022/05/07 04:44:18;;;;;;;54.33;37.28;;;;;;;;;;4939187;28;21451;-68
2022/05/07 04:46:45;;;;;;;62.00;42.03;;;;;;;;;;4961899;28;20054;-68
2022/05/07 04:49:14;;;;;;;60.83;42.00;;;;;;;;;;4954485;28;20054;-68
2022/05/07 04:51:41;;;;;;;58.25;39.78;;;;;;;;;;4952925;28;20054;-68
2022/05/07 04:54:08;;;;;;;57.65;41.10;;;;;;;;;;4933400;28;20063;-68
2022/05/07 04:56:35;;;;;;;69.05;45.70;;;;;;;;;;4961464;28;20121;-68
2022/05/07 04:59:04;;;;;;;69.13;45.30;;;;;;;;;;4956884;28;20054;-68
2022/05/07 05:01:31;;;;;;;62.05;42.55;;;;;;;;;;4938111;28;20054;-68
2022/05/07 05:03:59;;;;;;;68.15;45.33;;;;;;;;;;4932422;28;20067;-68
2022/05/07 05:06:26;;;;;;;70.28;44.38;;;;;;;;;;4956270;28;20508;-68
2022/05/07 05:08:54;;;;;;;72.05;46.88;;;;;;;;;;4960912;28;20769;-68
2022/05/07 05:11:21;;;;;;;73.70;48.35;;;;;;;;;;4957540;28;20532;-68
2022/05/07 05:13:48;;;;;;;78.35;47.38;;;;;;;;;;4958437;28;20051;-68
2022/05/07 05:16:17;;;;;;;71.95;46.83;;;;;;;;;;4941815;28;20043;-68
2022/05/07 05:18:44;;;;;;;70.75;46.38;;;;;;;;;;4956069;28;20058;-68
2022/05/07 05:21:11;;;;;;;69.90;45.28;;;;;;;;;;4961461;28;20055;-68
2022/05/07 05:23:38;;;;;;;64.85;45.15;;;;;;;;;;4955031;28;20058;-68
2022/05/07 05:26:05;;;;;;;57.78;41.10;;;;;;;;;;4956693;28;20054;-68
2022/05/07 05:28:35;;;;;;;59.40;41.38;;;;;;;;;;4959796;28;20105;-68
2022/05/07 05:31:03;;;;;;;61.70;41.83;;;;;;;;;;4961122;28;20062;-68
2022/05/07 05:33:31;;;;;;;57.00;38.90;;;;;;;;;;4957993;28;20051;-68
2022/05/07 05:35:58;;;;;;;67.75;43.30;;;;;;;;;;4957702;28;20050;-68
2022/05/07 05:38:26;;;;;;;64.63;44.17;;;;;;;;;;4948783;28;20054;-68
2022/05/07 05:40:53;;;;;;;60.88;44.17;;;;;;;;;;4953350;28;20090;-68
2022/05/07 05:43:20;;;;;;;61.95;43.08;;;;;;;;;;4939942;28;20050;-68
2022/05/07 05:45:47;;;;;;;71.18;49.13;;;;;;;;;;4939788;28;20058;-68
2022/05/07 05:48:15;;;;;;;62.67;45.58;;;;;;;;;;4934352;28;20465;-68
2022/05/07 05:50:44;;;;;;;58.10;41.40;;;;;;;;;;4951947;28;20410;-68
2022/05/07 05:53:11;;;;;;;60.10;43.42;;;;;;;;;;4960530;28;20074;-68
2022/05/07 05:55:38;;;;;;;57.08;41.95;;;;;;;;;;4960798;28;20046;-68
2022/05/07 05:58:05;;;;;;;61.70;43.55;;;;;;;;;;4958722;28;20062;-68
2022/05/07 06:00:33;;;;;;;58.42;43.13;;;;;;;;;;4954443;28;20058;-68
2022/05/07 06:03:00;;;;;;;58.78;42.58;;;;;;;;;;4931788;28;20066;-68
2022/05/07 06:05:27;;;;;;;64.47;45.35;;;;;;;;;;4953775;28;20105;-68
2022/05/07 06:07:56;;;;;;;62.47;45.90;;;;;;;;;;4937055;28;20593;-68
2022/05/07 06:10:23;;;;;;;70.68;49.22;;;;;;;;;;4933082;28;20121;-68
2022/05/07 06:12:50;;;;;;;74.60;48.25;;;;;;;;;;4939609;28;20052;-68
2022/05/07 06:15:17;;;;;;;71.88;50.15;;;;;;;;;;4939652;28;20157;-68
2022/05/07 06:17:45;;;;;;;77.18;51.55;;;;;;;;;;4941868;29;20502;-68
2022/05/07 06:20:12;;;;;;;81.45;50.53;;;;;;;;;;4937944;28;20662;-68
2022/05/07 06:22:39;;;;;;;75.90;50.80;;;;;;;;;;4933827;28;20055;-68
2022/05/07 06:27:53;;;;;;;68.72;47.78;;;;;;;;;;4933227;28;20047;-68
2022/05/07 06:30:21;;;;;;;75.28;53.78;;;;;;;;;;4935230;28;20065;-68
2022/05/07 06:32:48;;;;;;;85.22;54.65;;;;;;;;;;4935897;28;20043;-68
2022/05/07 06:35:16;;;;;;;82.38;54.78;;;;;;;;;;4933981;28;20099;-68
2022/05/07 06:37:47;;;;;;;75.03;49.95;;;;;;;;;;4933497;28;20063;-68
2022/05/07 06:40:16;;;;;;;76.43;51.33;;;;;;;;;;4934177;28;20055;-68
2022/05/07 06:42:44;;;;;;;82.15;54.80;;;;;;;;;;4934644;28;20455;-68
2022/05/07 06:45:12;;;;;;;88.75;54.72;;;;;;;;;;4931523;28;20058;-68
2022/05/07 06:47:39;;;;;;;82.15;53.15;;;;;;;;;;4937800;28;20052;-68
2022/05/07 06:50:07;;;;;;;93.72;59.75;;;;;;;;;;4934897;28;20051;-68
2022/05/07 06:52:43;;;;;;;98.53;60.55;;;;;;;;;;4931806;28;20060;-68
2022/05/07 06:55:13;;;;;;;90.95;57.75;;;;;;;;;;4935759;28;20059;-68
2022/05/07 06:57:42;;;;;;;100.07;61.45;;;;;;;;;;4933566;28;20063;-68
2022/05/07 07:00:10;;;;;;;89.07;55.70;;;;;;;;;;4935411;28;20047;-68
2022/05/07 07:02:38;;;;;;;84.38;53.55;;;;;;;;;;4936890;28;20517;-68
2022/05/07 07:05:05;;;;;;;90.78;57.72;;;;;;;;;;4937116;28;20116;-68
2022/05/07 07:07:32;;;;;;;93.78;58.60;;;;;;;;;;4937474;28;20141;-68
2022/05/07 07:10:00;;;;;;;96.00;56.53;;;;;;;;;;4934467;28;20449;-68
2022/05/07 07:12:28;;;;;;;83.95;53.05;;;;;;;;;;4937300;28;20066;-68
2022/05/07 07:14:57;;;;;;;88.75;54.15;;;;;;;;;;4932260;28;20148;-68
2022/05/07 07:17:27;;;;;;;87.40;53.55;;;;;;;;;;4936772;28;20048;-68
2022/05/07 07:19:55;;;;;;;80.75;52.42;;;;;;;;;;4937599;28;20098;-68
2022/05/07 07:22:22;;;;;;;90.68;55.05;;;;;;;;;;4938862;28;20098;-68
2022/05/07 07:24:49;;;;;;;76.20;48.92;;;;;;;;;;4936681;28;20055;-69
2022/05/07 07:27:16;;;;;;;83.30;51.83;;;;;;;;;;4934124;28;20063;-69
2022/05/07 07:29:47;;;;;;;79.03;49.38;;;;;;;;;;4936605;28;20063;-69
2022/05/07 07:32:16;;;;;;;73.50;46.30;;;;;;;;;;4940357;28;20134;-69
2022/05/07 07:34:43;;;;;;;69.10;45.45;;;;;;;;;;4936755;28;20130;-69
2022/05/07 07:37:10;;;;;;;73.18;45.85;;;;;;;;;;4935150;28;20135;-69
2022/05/07 07:39:38;;;;;;;66.75;43.53;;;;;;;;;;4928824;28;20388;-68
2022/05/07 07:42:05;;;;;;;61.95;40.50;;;;;;;;;;4934548;28;20729;-68
2022/05/07 07:44:32;;;;;;;67.13;43.55;;;;;;;;;;4931809;28;20055;-68
2022/05/07 07:49:46;;;;;;;67.93;43.63;;;;;;;;;;4934504;28;20062;-68
2022/05/07 07:52:15;;;;;;;70.07;45.03;;;;;;;;;;4933305;28;20170;-68
2022/05/07 07:54:43;;;;;;;70.00;46.35;;;;;;;;;;4935370;28;20150;-68
2022/05/07 07:57:10;;;;;;;77.10;49.03;;;;;;;;;;4932656;28;20055;-69
2022/05/07 07:59:39;;;;;;;65.18;42.90;;;;;;;;;;4933218;28;20063;-69
2022/05/07 08:02:06;;;;;;;72.25;45.42;;;;;;;;;;4932999;28;20134;-69
2022/05/07 08:04:34;;;;;;;71.07;46.28;;;;;;;;;;4934419;28;20055;-69
2022/05/07 08:12:28;;;;;;;54.08;37.60;;;;;;;;;;4934537;28;20055;-69
2022/05/07 08:14:55;;;;;;;63.83;41.88;;;;;;;;;;4931029;28;20047;-69
2022/05/07 08:17:22;;;;;;;63.20;41.03;;;;;;;;;;4934369;28;20055;-69
2022/05/07 08:19:50;;;;;;;68.93;45.50;;;;;;;;;;4934869;28;20057;-69
2022/05/07 08:22:18;;;;;;;61.88;41.47;;;;;;;;;;4934387;28;20411;-69
2022/05/07 08:24:45;;;;;;;62.55;42.78;;;;;;;;;;4931850;28;20485;-69
2022/05/07 08:27:13;;;;;;;58.80;41.20;;;;;;;;;;4933805;28;20447;-69
2022/05/07 08:29:40;;;;;;;62.13;41.78;;;;;;;;;;4928914;28;20059;-69
2022/05/07 08:32:07;;;;;;;63.55;42.70;;;;;;;;;;4934951;28;20200;-69
2022/05/07 08:34:34;;;;;;;69.35;45.03;;;;;;;;;;4933533;28;20059;-69
2022/05/07 08:37:02;;;;;;;57.10;36.20;;;;;;;;;;4943362;28;20142;-69
2022/05/07 08:39:31;;;;;;;53.25;36.15;;;;;;;;;;4936775;28;20047;-69
2022/05/07 08:41:58;;;;;;;49.65;34.95;;;;;;;;;;4930689;28;20152;-69
2022/05/07 08:44:25;;;;;;;49.85;34.88;;;;;;;;;;4932272;28;20055;-69
2022/05/07 08:46:53;;;;;;;52.28;36.38;;;;;;;;;;4933629;28;21858;-69
2022/05/07 08:49:20;;;;;;;55.15;35.90;;;;;;;;;;4931445;28;20059;-69
2022/05/07 08:51:49;;;;;;;51.08;37.72;;;;;;;;;;4929443;28;20157;-69
2022/05/07 08:54:16;;;;;;;54.58;36.05;;;;;;;;;;4929597;28;20058;-69
2022/05/07 08:56:45;;;;;;;46.72;33.00;;;;;;;;;;4930478;28;20059;-69
2022/05/07 08:59:13;;;;;;;44.97;28.88;;;;;;;;;;4931073;28;20317;-69
2022/05/07 09:01:42;;;;;;;38.05;24.75;;;;;;;;;;4933397;28;20054;-69
2022/05/07 09:04:10;;;;;;;34.67;22.17;;;;;;;;;;4939786;28;20051;-69
2022/05/07 09:06:37;;;;;;;29.60;20.23;;;;;;;;;;4944256;28;20465;-69
2022/05/07 09:09:06;;;;;;;30.33;21.80;;;;;;;;;;4938594;28;20052;-69
2022/05/07 09:11:42;;;;;;;31.98;20.38;;;;;;;;;;4963556;28;20051;-69
2022/05/07 09:14:11;;;;;;;33.40;23.98;;;;;;;;;;4944181;28;20086;-69
2022/05/07 09:16:39;;;;;;;49.10;29.98;;;;;;;;;;4956330;28;20043;-69
2022/05/07 09:19:07;;;;;;;43.58;30.40;;;;;;;;;;4958386;28;20042;-69
2022/05/07 09:21:35;;;;;;;43.10;29.33;;;;;;;;;;4947069;28;20055;-69
2022/05/07 09:24:03;;;;;;;39.88;26.42;;;;;;;;;;4944274;28;20158;-69
2022/05/07 09:26:31;;;;;;;42.90;27.85;;;;;;;;;;4962742;28;20050;-69
2022/05/07 09:29:00;;;;;;;39.88;28.75;;;;;;;;;;4960445;28;20050;-69
2022/05/07 09:31:29;;;;;;;41.33;28.23;;;;;;;;;;4954722;28;20078;-69
2022/05/07 09:35:47;;;;;;;36.40;26.13;;;;;;;;;;4958651;28;20061;-69
2022/05/07 09:36:43;;;;;;;43.50;26.92;;;;;;;;;;4966066;28;20555;-69
2022/05/07 09:39:12;;;;;;;44.70;29.10;;;;;;;;;;4961795;28;20047;-69
2022/05/07 09:41:41;;;;;;;40.20;28.25;;;;;;;;;;4956331;28;20078;-69
2022/05/07 09:44:09;;;;;;;37.28;26.60;;;;;;;;;;4944481;28;20371;-69
2022/05/07 09:46:38;;;;;;;36.35;23.45;;;;;;;;;;4959774;28;20051;-69
2022/05/07 09:49:06;;;;;;;32.58;21.67;;;;;;;;;;4946582;28;20058;-69
2022/05/07 09:51:34;;;;;;;19.58;11.75;;;;;;;;;;4966074;28;20869;-69
2022/05/07 09:59:27;;;;;;;12.00;8.15;;;;;;;;;;4948005;28;20138;-69
2022/05/07 10:02:04;;;;;;;12.98;7.78;;;;;;;;;;4966566;28;20117;-69
2022/05/07 10:04:38;;;;;;;12.27;8.20;;;;;;;;;;4964202;28;20083;-69
2022/05/07 10:07:20;;;;;;;15.90;11.05;;;;;;;;;;4965441;28;20126;-69
2022/05/07 10:09:57;;;;;;;18.00;12.70;;;;;;;;;;4949692;28;20050;-69
2022/05/07 10:12:25;;;;;;;23.52;16.92;;;;;;;;;;4968776;28;20054;-69
2022/05/07 10:14:52;;;;;;;23.13;17.10;;;;;;;;;;4960100;28;20063;-69
2022/05/07 10:17:22;;;;;;;22.40;15.50;;;;;;;;;;4943880;28;20047;-69
2022/05/07 10:19:50;;;;;;;23.45;16.52;;;;;;;;;;4947148;28;20105;-69
2022/05/07 10:22:18;;;;;;;21.35;14.73;;;;;;;;;;4941084;28;20125;-69
2022/05/07 10:24:46;;;;;;;20.90;14.23;;;;;;;;;;4965307;28;20059;-69
2022/05/07 10:27:23;;;;;;;21.27;15.48;;;;;;;;;;4948076;28;20151;-69
2022/05/07 10:29:51;;;;;;;24.60;16.95;;;;;;;;;;4969625;28;20055;-69
2022/05/07 10:32:21;;;;;;;21.15;15.57;;;;;;;;;;4969497;28;20082;-69
2022/05/07 10:34:53;;;;;;;21.30;14.70;;;;;;;;;;4961754;28;20055;-69
2022/05/07 10:37:20;;;;;;;22.30;15.40;;;;;;;;;;4971198;28;20042;-69
2022/05/07 10:39:51;;;;;;;22.15;15.85;;;;;;;;;;4969251;28;20454;-69
2022/05/07 10:42:19;;;;;;;20.38;15.57;;;;;;;;;;4950176;28;20133;-69
2022/05/07 10:44:46;;;;;;;22.92;15.20;;;;;;;;;;4965428;28;20079;-69
2022/05/07 10:47:14;;;;;;;24.88;15.57;;;;;;;;;;4966913;28;20050;-69
2022/05/07 10:49:55;;;;;;;21.20;15.57;;;;;;;;;;4971377;28;20061;-70
2022/05/07 10:52:32;;;;;;;21.77;16.17;;;;;;;;;;4965842;28;20774;-69
2022/05/07 10:55:10;;;;;;;21.80;15.70;;;;;;;;;;4968202;28;20400;-69
2022/05/07 10:57:41;;;;;;;19.25;15.65;;;;;;;;;;4946620;28;20051;-69
2022/05/07 11:00:16;;;;;;;18.30;12.93;;;;;;;;;;4965700;28;20055;-69
2022/05/07 11:02:43;;;;;;;16.92;12.82;;;;;;;;;;4952912;28;20059;-69
2022/05/07 11:05:12;;;;;;;17.80;13.05;;;;;;;;;;4964635;28;20058;-69
2022/05/07 11:07:40;;;;;;;20.95;14.38;;;;;;;;;;4964080;28;20549;-69
2022/05/07 11:10:08;;;;;;;20.25;13.82;;;;;;;;;;4943509;28;20070;-69
2022/05/07 11:12:36;;;;;;;19.33;14.45;;;;;;;;;;4965697;28;20478;-69
2022/05/07 11:15:04;;;;;;;18.25;13.68;;;;;;;;;;4960262;28;20340;-69
2022/05/07 11:17:33;;;;;;;19.92;13.07;;;;;;;;;;4965709;28;20042;-69
2022/05/07 11:20:00;;;;;;;20.88;14.88;;;;;;;;;;4963417;28;20479;-69
2022/05/07 11:22:31;;;;;;;18.40;13.43;;;;;;;;;;4945798;28;20062;-69
2022/05/07 11:24:59;;;;;;;22.95;16.75;;;;;;;;;;4958817;28;20059;-69
2022/05/07 11:27:30;;;;;;;22.88;16.17;;;;;;;;;;4949321;28;20055;-69
2022/05/07 11:29:58;;;;;;;19.25;14.13;;;;;;;;;;4964525;28;20124;-69
2022/05/07 11:32:25;;;;;;;18.73;13.63;;;;;;;;;;4955060;28;20055;-69
2022/05/07 11:34:58;;;;;;;20.67;14.85;;;;;;;;;;4961519;28;20059;-70
2022/05/07 11:37:25;;;;;;;20.10;14.00;;;;;;;;;;4966157;28;20524;-70
2022/05/07 11:39:55;;;;;;;19.15;14.00;;;;;;;;;;4945943;28;20069;-70
2022/05/07 11:42:29;;;;;;;19.25;14.15;;;;;;;;;;4943273;28;20062;-70
2022/05/07 11:47:51;;;;;;;20.08;14.63;;;;;;;;;;4960477;28;20063;-70
2022/05/07 11:50:21;;;;;;;20.00;13.68;;;;;;;;;;4966813;28;20074;-70
2022/05/07 11:52:48;;;;;;;14.15;11.60;;;;;;;;;;4963151;28;20124;-70
2022/05/07 11:55:18;;;;;;;19.98;13.95;;;;;;;;;;4971037;28;20054;-69
2022/05/07 11:57:47;;;;;;;16.65;12.98;;;;;;;;;;4964005;28;20125;-69
2022/05/07 12:00:18;;;;;;;17.55;13.27;;;;;;;;;;4962082;28;20101;-69
2022/05/07 12:02:58;;;;;;;12.68;9.50;;;;;;;;;;4964940;28;20161;-69
2022/05/07 12:05:26;;;;;;;15.13;10.73;;;;;;;;;;4967863;28;20117;-69
2022/05/07 12:07:54;;;;;;;14.73;11.10;;;;;;;;;;4964184;28;20811;-69
2022/05/07 12:10:23;;;;;;;15.23;9.52;;;;;;;;;;4966787;28;20058;-70
2022/05/07 12:12:51;;;;;;;12.32;8.52;;;;;;;;;;4963931;28;20382;-70
2022/05/07 12:17:51;;;;;;;11.07;8.55;;;;;;;;;;4968204;28;20485;-70
2022/05/07 12:18:07;;;;;;;11.82;8.25;;;;;;;;;;4957706;28;20061;-70
2022/05/07 12:20:34;;;;;;;10.30;6.90;;;;;;;;;;4961188;28;20046;-70
2022/05/07 12:31:17;;;;;;;9.45;7.10;;;;;;;;;;4956658;28;20073;-70
2022/05/07 12:33:44;;;;;;;6.82;5.72;;;;;;;;;;4959414;28;20043;-70
2022/05/07 12:36:11;;;;;;;7.60;4.85;;;;;;;;;;4955404;28;20047;-70
2022/05/07 12:38:38;;;;;;;7.82;5.47;;;;;;;;;;4963752;28;20611;-70
2022/05/07 12:41:07;;;;;;;8.18;5.03;;;;;;;;;;4954227;28;20604;-70
2022/05/07 12:43:34;;;;;;;5.60;4.97;;;;;;;;;;4946547;28;20058;-70
2022/05/07 12:46:02;;;;;;;8.25;5.25;;;;;;;;;;4957502;28;20047;-70
2022/05/07 12:48:29;;;;;;;7.88;5.13;;;;;;;;;;4966848;28;20051;-70
2022/05/07 12:50:56;;;;;;;10.18;6.55;;;;;;;;;;4948090;28;20505;-70
2022/05/07 12:53:23;;;;;;;7.93;5.32;;;;;;;;;;4953416;28;20062;-70
2022/05/07 12:55:51;;;;;;;7.57;5.63;;;;;;;;;;4946643;28;20058;-70
2022/05/07 12:58:19;;;;;;;7.75;5.63;;;;;;;;;;4954539;28;20051;-70
2022/05/07 13:00:46;;;;;;;10.32;6.57;;;;;;;;;;4954028;28;20078;-70
2022/05/07 13:03:14;;;;;;;8.52;5.95;;;;;;;;;;4937730;28;20063;-70
2022/05/07 13:05:42;;;;;;;6.63;5.60;;;;;;;;;;4957011;28;20055;-70
2022/05/07 13:08:09;;;;;;;7.13;5.30;;;;;;;;;;4954301;28;20437;-70
2022/05/07 13:10:36;;;;;;;7.32;6.05;;;;;;;;;;4954634;28;20333;-70
2022/05/07 13:13:04;;;;;;;7.38;5.95;;;;;;;;;;4951995;28;20081;-70
2022/05/07 13:15:33;;;;;;;5.78;5.18;;;;;;;;;;4961214;28;20042;-70
2022/05/07 13:18:01;;;;;;;5.85;4.72;;;;;;;;;;4958719;28;20047;-70
2022/05/07 13:20:28;;;;;;;4.75;4.10;;;;;;;;;;4962477;28;20055;-70
2022/05/07 13:22:56;;;;;;;4.25;2.78;;;;;;;;;;4968047;28;20561;-70
2022/05/07 13:25:23;;;;;;;3.92;2.90;;;;;;;;;;4938886;28;20576;-70
2022/05/07 13:27:51;;;;;;;3.10;2.80;;;;;;;;;;4962539;28;20146;-70
2022/05/07 13:30:20;;;;;;;4.45;3.50;;;;;;;;;;4966837;28;20489;-70
2022/05/07 13:32:49;;;;;;;5.65;3.58;;;;;;;;;;4959232;28;20127;-70
2022/05/07 13:35:17;;;;;;;3.78;3.25;;;;;;;;;;4957115;28;20054;-70
2022/05/07 13:37:44;;;;;;;4.00;3.20;;;;;;;;;;4942207;28;20097;-70
2022/05/07 13:42:43;;;;;;;2.83;2.55;;;;;;;;;;4945785;28;20062;-66
2022/05/07 13:45:11;;;;;;;4.03;2.83;;;;;;;;;;4946069;29;20055;-66
2022/05/07 13:47:39;;;;;;;5.00;2.75;;;;;;;;;;4930071;28;20055;-66
2022/05/07 13:50:08;;;;;;;3.22;2.80;;;;;;;;;;4929175;29;20502;-66
2022/05/07 13:52:36;;;;;;;2.78;2.47;;;;;;;;;;4936728;28;20055;-66
2022/05/07 13:55:03;;;;;;;2.60;2.35;;;;;;;;;;4946364;28;20062;-66
2022/05/07 13:57:30;;;;;;;3.30;2.20;;;;;;;;;;4932261;28;20050;-66
2022/05/07 13:59:58;;;;;;;2.40;2.20;;;;;;;;;;4947725;28;20059;-67
2022/05/07 14:02:26;;;;;;;2.47;1.83;;;;;;;;;;4933315;28;20051;-67
2022/05/07 14:04:53;;;;;;;2.00;1.63;;;;;;;;;;4928868;29;20051;-67
2022/05/07 14:07:21;;;;;;;2.47;1.90;;;;;;;;;;4926265;29;20110;-67
2022/05/07 14:09:49;;;;;;;3.30;2.40;;;;;;;;;;4928405;29;20129;-67
2022/05/07 14:12:17;;;;;;;3.20;2.88;;;;;;;;;;4924958;29;20106;-67
2022/05/07 14:14:44;;;;;;;3.17;2.33;;;;;;;;;;4939961;29;20142;-67
2022/05/07 14:17:11;;;;;;;2.97;2.67;;;;;;;;;;4923998;29;20047;-67
2022/05/07 14:19:38;;;;;;;4.18;3.78;;;;;;;;;;4926142;29;20787;-67
2022/05/07 14:22:06;;;;;;;6.82;4.38;;;;;;;;;;4928294;28;20118;-67
2022/05/07 14:24:35;;;;;;;4.72;4.32;;;;;;;;;;4924551;29;20153;-67
2022/05/07 14:27:02;;;;;;;4.32;3.90;;;;;;;;;;4925307;29;20059;-67
2022/05/07 14:29:29;;;;;;;6.45;5.85;;;;;;;;;;4924289;29;20106;-67
2022/05/07 14:31:57;;;;;;;7.10;6.13;;;;;;;;;;4934150;29;20055;-66
2022/05/07 14:34:25;;;;;;;5.90;5.30;;;;;;;;;;4929542;29;20114;-66
2022/05/07 14:36:53;;;;;;;6.43;5.80;;;;;;;;;;4928033;29;20137;-66
2022/05/07 14:39:20;;;;;;;7.85;7.05;;;;;;;;;;4928986;29;20146;-66
2022/05/07 14:41:48;;;;;;;8.40;7.53;;;;;;;;;;4945633;28;20059;-66
2022/05/07 14:44:16;;;;;;;8.55;7.65;;;;;;;;;;4949032;29;20047;-66
2022/05/07 14:46:43;;;;;;;9.75;8.52;;;;;;;;;;4947193;28;20063;-66
2022/05/07 14:49:10;;;;;;;10.57;8.93;;;;;;;;;;4947486;28;20086;-66
2022/05/07 14:51:38;;;;;;;12.50;9.82;;;;;;;;;;4949422;29;20536;-66
2022/05/07 14:54:05;;;;;;;13.88;8.57;;;;;;;;;;4933168;29;20047;-66
2022/05/07 14:56:33;;;;;;;11.93;7.85;;;;;;;;;;4932083;29;20087;-66
2022/05/07 14:59:02;;;;;;;9.35;6.70;;;;;;;;;;4932484;29;20051;-66
2022/05/07 15:01:29;;;;;;;8.13;5.47;;;;;;;;;;4931594;29;20063;-66
2022/05/07 15:03:56;;;;;;;9.07;5.32;;;;;;;;;;4948035;29;20473;-66